| time (UTC) | temp C | wind direction | speed KPH | gust KPH | rain 1hr cm | rain 24hr cm | rain mn cm | humidity % | barometer mb |
| 20260510103852 | 10 | 295 | 3.2 | 3.2 | 0.00 | 1.80 | 1.80 | 99 | 1010.7 |
| 20260510103349 | 10 | 269 | 1.6 | 4.8 | 0.00 | 1.80 | 1.80 | 99 | 1010.7 |
| 20260510102845 | 10 | 341 | 1.6 | 3.2 | 0.00 | 1.80 | 1.80 | 99 | 1010.6 |
| 20260510102340 | 10 | 349 | 3.2 | 3.2 | 0.00 | 1.80 | 1.80 | 99 | 1010.6 |
| 20260510101838 | 10 | 348 | 3.2 | 3.2 | 0.00 | 1.80 | 1.80 | 99 | 1010.4 |
| 20260510101336 | 10 | 344 | 4.8 | 4.8 | 0.00 | 1.80 | 1.80 | 99 | 1010.4 |
| 20260510100832 | 10 | 349 | 3.2 | 3.2 | 0.00 | 1.80 | 1.80 | 99 | 1010.3 |
| 20260510100330 | 10 | 356 | 1.6 | 1.6 | 0.00 | 1.80 | 1.80 | 98 | 1010.3 |
| 20260510095826 | 10 | 335 | 3.2 | 3.2 | 0.00 | 1.80 | 1.80 | 98 | 1010.2 |
| 20260510095321 | 10 | 309 | 1.6 | 3.2 | 0.00 | 1.80 | 1.80 | 98 | 1010.2 |
| 20260510094820 | 10 | 297 | 0.0 | 0.0 | 0.00 | 1.80 | 1.80 | 98 | 1009.7 |
| 20260510094316 | 10 | 327 | 0.0 | 1.6 | 0.00 | 1.80 | 1.80 | 99 | 1009.9 |
| 20260510093812 | 11 | 318 | 0.0 | 0.0 | 0.00 | 1.80 | 1.80 | 99 | 1009.6 |
| 20260510093308 | 10 | 336 | 3.2 | 4.8 | 0.00 | 1.80 | 1.80 | 98 | 1009.6 |
| 20260510092805 | 11 | 354 | 4.8 | 4.8 | 0.00 | 1.80 | 1.80 | 98 | 1009.6 |
| 20260510092301 | 11 | 357 | 3.2 | 3.2 | 0.00 | 1.80 | 1.80 | 98 | 1009.4 |
| 20260510091756 | 11 | 345 | 0.0 | 0.0 | 0.00 | 1.80 | 1.80 | 99 | 1009.3 |
| 20260510091254 | 11 | 345 | 0.0 | 3.2 | 0.00 | 1.80 | 1.80 | 98 | 1009.5 |
| 20260510090750 | 11 | 235 | 0.0 | 1.6 | 0.00 | 1.80 | 1.80 | 98 | 1009.3 |
| 20260510090247 | 11 | 224 | 0.0 | 1.6 | 0.00 | 1.80 | 1.80 | 98 | 1009.4 |
| 20260510085743 | 11 | 319 | 0.0 | 0.0 | 0.00 | 1.80 | 1.80 | 98 | 1009.3 |
| 20260510085237 | 11 | 311 | 0.0 | 3.2 | 0.00 | 1.80 | 1.80 | 98 | 1009.3 |
| 20260510084734 | 11 | 311 | 0.0 | 0.0 | 0.00 | 1.80 | 1.80 | 98 | 1009.2 |
| 20260510084231 | 11 | 291 | 0.0 | 0.0 | 0.00 | 1.80 | 1.80 | 98 | 1009.2 |
| 20260510083727 | 11 | 336 | 3.2 | 3.2 | 0.00 | 1.80 | 1.80 | 98 | 1009.4 |
| 20260510083224 | 11 | 328 | 0.0 | 1.6 | 0.00 | 1.80 | 1.80 | 98 | 1009.3 |
| 20260510082720 | 11 | 350 | 3.2 | 4.8 | 0.00 | 1.80 | 1.80 | 98 | 1009.1 |
| 20260510082217 | 11 | 305 | 3.2 | 3.2 | 0.00 | 1.80 | 1.80 | 98 | 1009.4 |
| 20260510081716 | 11 | 358 | 4.8 | 4.8 | 0.00 | 1.80 | 1.80 | 98 | 1009.2 |
| 20260510081213 | 11 | 317 | 3.2 | 6.4 | 0.00 | 1.80 | 1.80 | 98 | 1009.1 |
| 20260510080713 | 11 | 349 | 8.0 | 8.0 | 0.00 | 1.80 | 1.80 | 97 | 1009.3 |
| 20260510080209 | 11 | 340 | 3.2 | 8.0 | 0.00 | 1.80 | 1.80 | 98 | 1009.2 |
| 20260510075706 | 11 | 353 | 4.8 | 9.7 | 0.00 | 1.80 | 1.80 | 97 | 1009.1 |
| 20260510075204 | 11 | 339 | 6.4 | 8.0 | 0.00 | 1.80 | 1.80 | 97 | 1008.9 |
| 20260510074700 | 12 | 304 | 3.2 | 4.8 | 0.00 | 1.80 | 1.80 | 97 | 1008.4 |
| 20260510074156 | 12 | 300 | 3.2 | 4.8 | 0.00 | 1.80 | 1.80 | 97 | 1008.5 |
| 20260510073653 | 12 | 214 | 3.2 | 3.2 | 0.00 | 1.80 | 1.80 | 97 | 1008.3 |
| 20260510073149 | 12 | 267 | 1.6 | 4.8 | 0.00 | 1.80 | 1.80 | 97 | 1008.7 |
| 20260510072645 | 12 | 278 | 0.0 | 4.8 | 0.05 | 1.80 | 1.80 | 97 | 1008.5 |
| 20260510072142 | 12 | 230 | 1.6 | 3.2 | 0.05 | 1.80 | 1.80 | 97 | 1008.4 |
| 20260510071638 | 12 | 231 | 3.2 | 3.2 | 0.00 | 1.80 | 1.80 | 97 | 1008.5 |
| 20260510071135 | 12 | 245 | 0.0 | 1.6 | 0.00 | 1.80 | 1.80 | 97 | 1008.5 |
| 20260510070633 | 12 | 336 | 3.2 | 3.2 | 0.00 | 1.80 | 1.80 | 97 | 1008.3 |
| 20260510070130 | 12 | 261 | 1.6 | 3.2 | 0.00 | 1.80 | 1.80 | 97 | 1008.4 |
| 20260510065626 | 12 | 310 | 3.2 | 3.2 | 0.00 | 1.80 | 1.80 | 97 | 1008.3 |
| 20260510065122 | 12 | 285 | 1.6 | 1.6 | 0.00 | 1.80 | 1.80 | 97 | 1008.3 |
| 20260510064618 | 12 | 228 | 0.0 | 3.2 | 0.00 | 1.80 | 1.80 | 97 | 1008.4 |
| 20260510064115 | 12 | 281 | 3.2 | 3.2 | 0.00 | 1.80 | 1.80 | 97 | 1008.3 |
| 20260510063612 | 12 | 212 | 3.2 | 3.2 | 0.00 | 1.80 | 1.80 | 97 | 1008.2 |
| 20260510063109 | 12 | 190 | 1.6 | 3.2 | 0.05 | 1.80 | 1.80 | 97 | 1008.3 |
| 20260510062605 | 12 | 220 | 1.6 | 3.2 | 0.13 | 1.80 | 1.80 | 97 | 1008.9 |
| 20260510062101 | 12 | 161 | 3.2 | 4.8 | 0.05 | 1.78 | 1.78 | 97 | 1009.2 |
| 20260510061557 | 12 | 273 | 4.8 | 14.5 | 0.18 | 1.78 | 1.78 | 98 | 1009.4 |
| 20260510061055 | 11 | 271 | 8.0 | 24.1 | 0.53 | 1.78 | 1.78 | 98 | 1009.7 |
| 20260510060550 | 11 | 301 | 9.7 | 22.5 | 0.30 | 1.75 | 1.75 | 98 | 1010.4 |
| 20260510060047 | 11 | 283 | 3.2 | 6.4 | 0.00 | 1.70 | 1.70 | 98 | 1009.1 |
| 20260510055543 | 11 | 269 | 0.0 | 3.2 | 0.00 | 1.70 | 1.70 | 98 | 1008.8 |
| 20260510055041 | 11 | 355 | 1.6 | 1.6 | 0.00 | 1.70 | 1.70 | 98 | 1008.8 |
| 20260510054537 | 11 | 344 | 3.2 | 3.2 | 0.00 | 1.70 | 1.70 | 98 | 1008.9 |
| 20260510054032 | 11 | 321 | 4.8 | 4.8 | 0.00 | 1.70 | 1.70 | 98 | 1009.0 |
| 20260510053527 | 11 | 347 | 1.6 | 3.2 | 0.00 | 1.70 | 1.70 | 98 | 1008.9 |
| 20260510053024 | 12 | 342 | 3.2 | 3.2 | 0.00 | 1.70 | 1.70 | 98 | 1008.8 |
| 20260510052520 | 12 | 319 | 3.2 | 6.4 | 0.00 | 1.70 | 1.70 | 98 | 1008.8 |
| 20260510052016 | 12 | 286 | 4.8 | 9.7 | 0.00 | 1.70 | 1.70 | 98 | 1009.0 |
| 20260510051512 | 12 | 99 | 1.6 | 3.2 | 0.05 | 1.70 | 1.70 | 98 | 1008.8 |
| 20260510051009 | 12 | 311 | 1.6 | 1.6 | 0.05 | 1.70 | 1.70 | 98 | 1008.9 |
| 20260510050506 | 12 | 338 | 3.2 | 4.8 | 0.05 | 1.68 | 1.68 | 98 | 1009.1 |
| 20260510050003 | 12 | 180 | 0.0 | 4.8 | 0.13 | 1.68 | 1.68 | 98 | 1009.0 |
| 20260510045500 | 12 | 302 | 6.4 | 6.4 | 0.13 | 1.68 | 1.68 | 98 | 1009.7 |
| 20260510044956 | 12 | 332 | 9.7 | 9.7 | 0.05 | 1.65 | 1.65 | 98 | 1009.2 |
| 20260510044453 | 12 | 319 | 6.4 | 6.4 | 0.30 | 1.65 | 1.65 | 98 | 1008.9 |
| 20260510043950 | 12 | 3 | 4.8 | 4.8 | 0.43 | 1.65 | 1.65 | 98 | 1008.8 |
| 20260510043445 | 12 | 48 | 0.0 | 3.2 | 0.30 | 1.60 | 1.60 | 98 | 1008.9 |
| 20260510042944 | 12 | 4 | 1.6 | 3.2 | 0.53 | 1.57 | 1.57 | 98 | 1009.1 |
| 20260510042440 | 12 | 255 | 3.2 | 6.4 | 1.27 | 1.55 | 1.55 | 98 | 1009.1 |
| 20260510041936 | 12 | 302 | 3.2 | 8.0 | 1.37 | 1.45 | 1.45 | 97 | 1009.5 |
| 20260510041433 | 12 | 5 | 8.0 | 8.0 | 1.55 | 1.32 | 1.32 | 97 | 1009.2 |
| 20260510040931 | 12 | 316 | 6.4 | 6.4 | 0.97 | 1.22 | 1.22 | 97 | 1009.2 |
| 20260510040427 | 12 | 286 | 3.2 | 6.4 | 0.05 | 1.07 | 1.07 | 97 | 1009.0 |
| 20260510035923 | 12 | 339 | 1.6 | 3.2 | 0.05 | 1.04 | 1.04 | 97 | 1008.9 |
| 20260510035419 | 12 | 329 | 3.2 | 4.8 | 0.23 | 1.04 | 1.04 | 97 | 1008.8 |
| 20260510034919 | 12 | 332 | 0.0 | 4.8 | 0.13 | 1.04 | 1.04 | 97 | 1008.9 |
| 20260510034418 | 12 | 289 | 3.2 | 4.8 | 0.00 | 1.02 | 1.02 | 97 | 1008.7 |
| 20260510033914 | 12 | 329 | 1.6 | 4.8 | 0.00 | 1.02 | 1.02 | 97 | 1008.4 |
| 20260510033410 | 12 | 271 | 0.0 | 3.2 | 0.00 | 1.02 | 1.02 | 97 | 1008.4 |
| 20260510032907 | 12 | 229 | 0.0 | 1.6 | 0.00 | 1.02 | 1.02 | 97 | 1008.2 |
| 20260510032404 | 12 | 200 | 0.0 | 3.2 | 0.00 | 1.02 | 1.02 | 97 | 1008.2 |
| 20260510031859 | 12 | 209 | 1.6 | 3.2 | 0.00 | 1.02 | 1.02 | 96 | 1008.4 |
| 20260510031355 | 12 | 177 | 0.0 | 0.0 | 0.00 | 1.02 | 1.02 | 96 | 1008.2 |
| 20260510030854 | 12 | 282 | 0.0 | 3.2 | 0.00 | 1.02 | 1.02 | 96 | 1008.5 |
| 20260510030351 | 12 | 230 | 0.0 | 3.2 | 0.00 | 1.02 | 1.02 | 96 | 1008.3 |
| 20260510025849 | 12 | 196 | 0.0 | 3.2 | 0.00 | 1.02 | 1.02 | 96 | 1008.5 |
| 20260510025346 | 12 | 224 | 0.0 | 3.2 | 0.00 | 1.02 | 1.02 | 96 | 1008.7 |
| 20260510024843 | 12 | 317 | 3.2 | 3.2 | 0.00 | 1.02 | 1.02 | 96 | 1008.8 |
| 20260510024340 | 12 | 335 | 0.0 | 1.6 | 0.05 | 1.02 | 1.02 | 96 | 1008.8 |
| 20260510023836 | 12 | 91 | 1.6 | 1.6 | 0.05 | 1.02 | 1.02 | 96 | 1008.8 |
| 20260510023332 | 12 | 287 | 0.0 | 3.2 | 0.05 | 0.99 | 0.99 | 96 | 1008.5 |
| 20260510022830 | 12 | 221 | 0.0 | 1.6 | 0.30 | 0.99 | 0.99 | 96 | 1009.0 |
| 20260510022329 | 12 | 159 | 0.0 | 3.2 | 0.43 | 0.99 | 0.99 | 95 | 1009.0 |
| 20260510021828 | 12 | 265 | 4.8 | 8.0 | 0.48 | 0.94 | 0.94 | 95 | 1009.4 |
| 20260510021327 | 12 | 5 | 4.8 | 12.9 | 0.66 | 0.91 | 0.91 | 95 | 1009.6 |
| 20260510020823 | 12 | 353 | 3.2 | 14.5 | 0.89 | 0.86 | 0.86 | 94 | 1009.5 |
| 20260510020322 | 12 | 25 | 14.5 | 14.5 | 1.02 | 0.81 | 0.81 | 94 | 1009.4 |
| 20260510015819 | 12 | 353 | 8.0 | 19.3 | 0.79 | 0.71 | 0.71 | 93 | 1009.5 |
| 20260510015315 | 12 | 307 | 12.9 | 17.7 | 0.66 | 0.64 | 0.64 | 93 | 1009.2 |
| 20260510014816 | 12 | 316 | 17.7 | 24.1 | 2.03 | 0.56 | 0.56 | 91 | 1008.9 |
| 20260510014313 | 13 | 320 | 19.3 | 29.0 | 2.46 | 0.51 | 0.51 | 88 | 1008.9 |
| 20260510013809 | 15 | 348 | 14.5 | 30.6 | 0.66 | 0.20 | 0.20 | 79 | 1008.5 |
| 20260510013306 | 16 | 283 | 16.1 | 37.0 | 0.05 | 0.10 | 0.10 | 68 | 1008.2 |
| 20260510012801 | 17 | 290 | 11.3 | 12.9 | 0.00 | 0.10 | 0.10 | 63 | 1007.1 |
| 20260510012301 | 17 | 193 | 4.8 | 14.5 | 0.00 | 0.10 | 0.10 | 62 | 1006.6 |
| 20260510011800 | 16 | 259 | 1.6 | 4.8 | 0.00 | 0.10 | 0.10 | 63 | 1006.7 |
| 20260510011256 | 16 | 192 | 3.2 | 6.4 | 0.00 | 0.10 | 0.10 | 62 | 1006.4 |
| 20260510010753 | 16 | 199 | 3.2 | 6.4 | 0.00 | 0.10 | 0.10 | 62 | 1006.1 |
| 20260510010250 | 16 | 175 | 4.8 | 8.0 | 0.00 | 0.10 | 0.10 | 62 | 1006.1 |
| 20260510005747 | 17 | 185 | 4.8 | 4.8 | 0.00 | 0.10 | 0.10 | 62 | 1006.3 |
| 20260510005243 | 17 | 164 | 3.2 | 6.4 | 0.00 | 0.10 | 0.10 | 61 | 1006.6 |
| 20260510004741 | 17 | 198 | 1.6 | 4.8 | 0.00 | 0.10 | 0.10 | 60 | 1006.3 |
| 20260510004238 | 17 | 187 | 3.2 | 4.8 | 0.00 | 0.10 | 0.10 | 61 | 1006.4 |
| 20260510003736 | 17 | 192 | 3.2 | 6.4 | 0.00 | 0.10 | 0.10 | 60 | 1006.1 |
| 20260510003232 | 17 | 209 | 3.2 | 6.4 | 0.00 | 0.10 | 0.10 | 59 | 1006.2 |
| 20260510002731 | 17 | 203 | 4.8 | 6.4 | 0.00 | 0.10 | 0.10 | 58 | 1006.3 |
| 20260510002228 | 17 | 218 | 8.0 | 8.0 | 0.00 | 0.10 | 0.10 | 58 | 1006.1 |
| 20260510001725 | 17 | 161 | 3.2 | 16.1 | 0.00 | 0.10 | 0.10 | 57 | 1006.0 |
| 20260510001224 | 18 | 203 | 4.8 | 11.3 | 0.00 | 0.10 | 0.10 | 57 | 1006.0 |
| 20260510000719 | 18 | 201 | 8.0 | 14.5 | 0.00 | 0.10 | 0.10 | 56 | 1006.1 |
| 20260510000218 | 18 | 202 | 4.8 | 6.4 | 0.00 | 0.10 | 0.10 | 55 | 1006.0 |
| 20260509235713 | 18 | 229 | 8.0 | 11.3 | 0.00 | 0.10 | 0.10 | 54 | 1005.7 |
| 20260509235210 | 18 | 244 | 1.6 | 6.4 | 0.00 | 0.10 | 0.10 | 55 | 1005.8 |
| 20260509234706 | 18 | 211 | 1.6 | 8.0 | 0.00 | 0.10 | 0.10 | 54 | 1005.8 |
| 20260509234203 | 19 | 243 | 4.8 | 19.3 | 0.00 | 0.10 | 0.10 | 54 | 1005.8 |
| 20260509233701 | 19 | 187 | 4.8 | 20.9 | 0.00 | 0.10 | 0.10 | 53 | 1005.7 |
| 20260509233159 | 19 | 233 | 9.7 | 14.5 | 0.00 | 0.10 | 0.10 | 52 | 1005.6 |
| 20260509232654 | 19 | 229 | 11.3 | 25.7 | 0.00 | 0.10 | 0.10 | 52 | 1005.6 |
| 20260509232151 | 19 | 179 | 6.4 | 19.3 | 0.00 | 0.10 | 0.10 | 52 | 1005.5 |
| 20260509231648 | 20 | 192 | 4.8 | 11.3 | 0.00 | 0.10 | 0.10 | 53 | 1005.6 |
| 20260509231145 | 20 | 218 | 8.0 | 22.5 | 0.00 | 0.10 | 0.10 | 52 | 1005.5 |
| 20260509230642 | 20 | 239 | 11.3 | 11.3 | 0.00 | 0.10 | 0.10 | 53 | 1005.5 |
| 20260509230139 | 20 | 181 | 4.8 | 9.7 | 0.00 | 0.10 | 0.10 | 53 | 1005.6 |
| 20260509225635 | 20 | 193 | 8.0 | 9.7 | 0.00 | 0.10 | 0.10 | 53 | 1005.7 |
| 20260509225131 | 20 | 234 | 6.4 | 9.7 | 0.00 | 0.10 | 0.10 | 53 | 1005.7 |
| 20260509224626 | 20 | 229 | 12.9 | 20.9 | 0.00 | 0.10 | 0.10 | 52 | 1005.9 |
| 20260509224123 | 20 | 210 | 4.8 | 27.4 | 0.00 | 0.10 | 0.10 | 52 | 1005.7 |
| 20260509223620 | 20 | 237 | 14.5 | 20.9 | 0.00 | 0.10 | 0.10 | 51 | 1005.5 |
| 20260509223118 | 20 | 223 | 11.3 | 27.4 | 0.00 | 0.10 | 0.10 | 51 | 1005.8 |
| 20260509222614 | 20 | 186 | 4.8 | 12.9 | 0.00 | 0.10 | 0.10 | 51 | 1005.7 |
| 20260509222110 | 20 | 169 | 8.0 | 17.7 | 0.00 | 0.10 | 0.10 | 52 | 1005.7 |
| 20260509221606 | 20 | 197 | 3.2 | 16.1 | 0.00 | 0.10 | 0.10 | 52 | 1005.5 |
| 20260509221102 | 20 | 243 | 4.8 | 16.1 | 0.00 | 0.10 | 0.10 | 53 | 1005.6 |
| 20260509220558 | 20 | 184 | 6.4 | 22.5 | 0.00 | 0.10 | 0.10 | 51 | 1005.3 |
| 20260509220054 | 20 | 193 | 3.2 | 9.7 | 0.00 | 0.10 | 0.10 | 54 | 1005.6 |
| 20260509215549 | 20 | 201 | 6.4 | 29.0 | 0.00 | 0.10 | 0.10 | 52 | 1005.6 |
| 20260509215047 | 20 | 221 | 9.7 | 11.3 | 0.00 | 0.10 | 0.10 | 54 | 1005.8 |
| 20260509214544 | 20 | 165 | 6.4 | 14.5 | 0.00 | 0.10 | 0.10 | 52 | 1005.6 |
| 20260509214041 | 20 | 235 | 8.0 | 12.9 | 0.00 | 0.10 | 0.10 | 53 | 1005.7 |
| 20260509213537 | 20 | 146 | 3.2 | 11.3 | 0.00 | 0.10 | 0.10 | 51 | 1005.7 |
| 20260509213034 | 20 | 183 | 3.2 | 14.5 | 0.00 | 0.10 | 0.10 | 54 | 1005.7 |
| 20260509212531 | 20 | 247 | 3.2 | 12.9 | 0.00 | 0.10 | 0.10 | 54 | 1005.6 |
| 20260509212028 | 20 | 259 | 9.7 | 17.7 | 0.00 | 0.10 | 0.10 | 52 | 1005.9 |
| 20260509211524 | 20 | 227 | 17.7 | 20.9 | 0.00 | 0.10 | 0.10 | 53 | 1005.9 |
| 20260509211021 | 19 | 231 | 9.7 | 14.5 | 0.00 | 0.10 | 0.10 | 56 | 1006.0 |
| 20260509210518 | 20 | 215 | 9.7 | 25.7 | 0.00 | 0.10 | 0.10 | 52 | 1005.9 |
| 20260509210014 | 20 | 222 | 6.4 | 8.0 | 0.00 | 0.10 | 0.10 | 55 | 1006.0 |
| 20260509205508 | 20 | 168 | 3.2 | 9.7 | 0.00 | 0.10 | 0.10 | 54 | 1005.9 |
| 20260509205004 | 20 | 195 | 6.4 | 20.9 | 0.00 | 0.10 | 0.10 | 51 | 1006.2 |
| 20260509204500 | 20 | 217 | 14.5 | 16.1 | 0.00 | 0.10 | 0.10 | 53 | 1006.1 |
| 20260509203957 | 21 | 196 | 3.2 | 9.7 | 0.00 | 0.10 | 0.10 | 52 | 1006.4 |
| 20260509203452 | 20 | 258 | 6.4 | 6.4 | 0.00 | 0.10 | 0.10 | 53 | 1006.4 |
| 20260509202951 | 20 | 246 | 8.0 | 22.5 | 0.00 | 0.10 | 0.10 | 53 | 1006.2 |
| 20260509202446 | 20 | 237 | 8.0 | 27.4 | 0.00 | 0.10 | 0.10 | 52 | 1006.4 |
| 20260509201941 | 20 | 248 | 14.5 | 25.7 | 0.00 | 0.10 | 0.10 | 56 | 1006.6 |
| 20260509201437 | 19 | 205 | 11.3 | 17.7 | 0.00 | 0.10 | 0.10 | 56 | 1006.6 |
| 20260509200934 | 20 | 219 | 8.0 | 19.3 | 0.00 | 0.10 | 0.10 | 55 | 1006.6 |
| 20260509200434 | 19 | 179 | 0.0 | 16.1 | 0.00 | 0.10 | 0.10 | 56 | 1006.7 |
| 20260509195931 | 19 | 225 | 12.9 | 24.1 | 0.00 | 0.10 | 0.10 | 56 | 1006.7 |
| 20260509195427 | 18 | 220 | 14.5 | 20.9 | 0.00 | 0.10 | 0.10 | 59 | 1006.8 |
| 20260509194926 | 18 | 232 | 4.8 | 12.9 | 0.00 | 0.10 | 0.10 | 58 | 1006.9 |
| 20260509194422 | 19 | 223 | 24.1 | 25.7 | 0.00 | 0.10 | 0.10 | 57 | 1006.9 |
| 20260509193920 | 19 | 248 | 4.8 | 14.5 | 0.00 | 0.10 | 0.10 | 58 | 1007.0 |
| 20260509193419 | 18 | 169 | 4.8 | 14.5 | 0.00 | 0.10 | 0.10 | 58 | 1006.9 |
| 20260509192915 | 18 | 227 | 19.3 | 25.7 | 0.00 | 0.10 | 0.10 | 62 | 1007.2 |
| 20260509192411 | 18 | 220 | 12.9 | 20.9 | 0.00 | 0.10 | 0.10 | 59 | 1007.2 |
| 20260509191907 | 19 | 242 | 9.7 | 20.9 | 0.00 | 0.10 | 0.10 | 58 | 1007.1 |
| 20260509191403 | 18 | 191 | 8.0 | 25.7 | 0.00 | 0.10 | 0.10 | 59 | 1007.0 |
| 20260509190859 | 18 | 228 | 8.0 | 17.7 | 0.00 | 0.10 | 0.10 | 61 | 1007.1 |
| 20260509190356 | 18 | 226 | 6.4 | 14.5 | 0.00 | 0.10 | 0.10 | 64 | 1007.3 |
| 20260509185853 | 18 | 227 | 14.5 | 29.0 | 0.00 | 0.10 | 0.10 | 63 | 1007.3 |
| 20260509185350 | 17 | 175 | 4.8 | 16.1 | 0.00 | 0.10 | 0.10 | 66 | 1007.3 |
| 20260509184847 | 17 | 214 | 12.9 | 25.7 | 0.00 | 0.10 | 0.10 | 64 | 1007.4 |
| 20260509184344 | 17 | 226 | 8.0 | 16.1 | 0.00 | 0.10 | 0.10 | 62 | 1007.3 |
| 20260509183841 | 17 | 211 | 11.3 | 24.1 | 0.00 | 0.10 | 0.10 | 66 | 1007.3 |
| 20260509183336 | 17 | 162 | 8.0 | 11.3 | 0.00 | 0.10 | 0.10 | 66 | 1007.5 |
| 20260509182832 | 17 | 219 | 17.7 | 19.3 | 0.00 | 0.10 | 0.10 | 65 | 1007.5 |
| 20260509182329 | 17 | 199 | 14.5 | 17.7 | 0.00 | 0.10 | 0.10 | 66 | 1007.5 |
| 20260509181827 | 17 | 240 | 9.7 | 9.7 | 0.00 | 0.10 | 0.10 | 71 | 1007.7 |
| 20260509181324 | 16 | 229 | 9.7 | 14.5 | 0.00 | 0.10 | 0.10 | 67 | 1007.7 |
| 20260509180821 | 16 | 222 | 6.4 | 14.5 | 0.00 | 0.10 | 0.10 | 67 | 1007.7 |
| 20260509180317 | 17 | 240 | 12.9 | 14.5 | 0.00 | 0.10 | 0.10 | 65 | 1007.6 |
| 20260509175814 | 17 | 233 | 9.7 | 19.3 | 0.00 | 0.10 | 0.10 | 66 | 1007.6 |
| 20260509175310 | 17 | 211 | 4.8 | 11.3 | 0.00 | 0.10 | 0.10 | 67 | 1007.5 |
| 20260509174806 | 16 | 196 | 12.9 | 22.5 | 0.00 | 0.10 | 0.10 | 67 | 1007.8 |
| 20260509174302 | 16 | 237 | 17.7 | 24.1 | 0.00 | 0.10 | 0.10 | 69 | 1007.9 |
| 20260509173758 | 16 | 216 | 16.1 | 20.9 | 0.00 | 0.10 | 0.10 | 68 | 1007.9 |
| 20260509173253 | 16 | 237 | 6.4 | 12.9 | 0.00 | 0.10 | 0.10 | 72 | 1007.8 |
| 20260509172749 | 15 | 249 | 3.2 | 14.5 | 0.00 | 0.10 | 0.10 | 72 | 1007.8 |
| 20260509172247 | 15 | 232 | 11.3 | 19.3 | 0.00 | 0.10 | 0.10 | 72 | 1008.0 |
| 20260509171742 | 15 | 222 | 16.1 | 22.5 | 0.00 | 0.10 | 0.10 | 71 | 1007.8 |
| 20260509171238 | 15 | 227 | 8.0 | 17.7 | 0.00 | 0.10 | 0.10 | 73 | 1007.7 |
| 20260509170735 | 16 | 220 | 14.5 | 20.9 | 0.00 | 0.10 | 0.10 | 73 | 1007.9 |
| 20260509170231 | 16 | 243 | 4.8 | 12.9 | 0.00 | 0.10 | 0.10 | 74 | 1007.8 |
| 20260509165730 | 15 | 201 | 0.0 | 14.5 | 0.00 | 0.10 | 0.10 | 73 | 1007.7 |
| 20260509165225 | 15 | 259 | 14.5 | 16.1 | 0.00 | 0.10 | 0.10 | 73 | 1007.5 |
| 20260509164721 | 15 | 121 | 3.2 | 14.5 | 0.00 | 0.10 | 0.10 | 75 | 1007.7 |
| 20260509164217 | 15 | 182 | 8.0 | 16.1 | 0.00 | 0.10 | 0.10 | 75 | 1007.6 |
| 20260509163715 | 15 | 181 | 9.7 | 16.1 | 0.00 | 0.10 | 0.10 | 75 | 1007.6 |
| 20260509163211 | 15 | 211 | 8.0 | 20.9 | 0.00 | 0.10 | 0.10 | 75 | 1007.8 |
| 20260509162709 | 15 | 238 | 12.9 | 14.5 | 0.00 | 0.10 | 0.10 | 76 | 1007.5 |
| 20260509162204 | 15 | 178 | 4.8 | 16.1 | 0.00 | 0.10 | 0.10 | 75 | 1007.4 |
| 20260509161700 | 15 | 212 | 11.3 | 14.5 | 0.00 | 0.10 | 0.10 | 75 | 1007.6 |
| 20260509161155 | 15 | 159 | 3.2 | 12.9 | 0.00 | 0.10 | 0.10 | 76 | 1007.5 |
| 20260509160651 | 15 | 236 | 8.0 | 20.9 | 0.00 | 0.10 | 0.10 | 75 | 1007.4 |
| 20260509160147 | 15 | 268 | 6.4 | 9.7 | 0.00 | 0.10 | 0.10 | 76 | 1007.4 |
| 20260509155643 | 15 | 202 | 8.0 | 11.3 | 0.00 | 0.10 | 0.10 | 76 | 1007.4 |
| 20260509155140 | 15 | 190 | 3.2 | 9.7 | 0.00 | 0.10 | 0.10 | 77 | 1007.2 |
| 20260509154635 | 15 | 165 | 4.8 | 11.3 | 0.00 | 0.10 | 0.10 | 77 | 1007.4 |
| 20260509154133 | 15 | 230 | 6.4 | 12.9 | 0.00 | 0.10 | 0.10 | 77 | 1007.3 |
| 20260509153630 | 15 | 171 | 6.4 | 8.0 | 0.00 | 0.10 | 0.10 | 80 | 1007.3 |
| 20260509153126 | 15 | 225 | 9.7 | 16.1 | 0.00 | 0.10 | 0.10 | 79 | 1007.2 |
| 20260509152622 | 14 | 190 | 4.8 | 9.7 | 0.00 | 0.10 | 0.10 | 83 | 1007.1 |
| 20260509152120 | 14 | 148 | 3.2 | 14.5 | 0.00 | 0.10 | 0.10 | 80 | 1007.2 |
| 20260509151616 | 14 | 247 | 3.2 | 19.3 | 0.00 | 0.10 | 0.10 | 81 | 1007.4 |
| 20260509151114 | 14 | 226 | 1.6 | 16.1 | 0.00 | 0.10 | 0.10 | 85 | 1007.3 |
| 20260509150611 | 13 | 207 | 8.0 | 12.9 | 0.00 | 0.10 | 0.10 | 87 | 1007.4 |
| 20260509150109 | 13 | 190 | 9.7 | 14.5 | 0.00 | 0.10 | 0.10 | 90 | 1007.3 |
| 20260509145605 | 13 | 180 | 9.7 | 12.9 | 0.00 | 0.10 | 0.10 | 90 | 1007.3 |
| 20260509145100 | 12 | 183 | 3.2 | 6.4 | 0.00 | 0.10 | 0.10 | 93 | 1007.3 |
| 20260509144558 | 12 | 194 | 3.2 | 6.4 | 0.00 | 0.10 | 0.10 | 92 | 1007.3 |
| 20260509144054 | 12 | 185 | 0.0 | 11.3 | 0.00 | 0.10 | 0.10 | 93 | 1007.6 |
| 20260509143551 | 11 | 222 | 11.3 | 12.9 | 0.00 | 0.10 | 0.10 | 94 | 1007.8 |
| 20260509143049 | 11 | 176 | 1.6 | 6.4 | 0.00 | 0.10 | 0.10 | 94 | 1007.6 |
| 20260509142544 | 11 | 252 | 3.2 | 4.8 | 0.00 | 0.10 | 0.10 | 95 | 1007.7 |
| 20260509142041 | 11 | 229 | 3.2 | 9.7 | 0.00 | 0.10 | 0.10 | 95 | 1007.5 |
| 20260509141537 | 11 | 261 | 4.8 | 8.0 | 0.00 | 0.10 | 0.10 | 95 | 1007.8 |
| 20260509141034 | 11 | 151 | 3.2 | 4.8 | 0.00 | 0.10 | 0.10 | 96 | 1007.6 |
| 20260509140531 | 11 | 196 | 0.0 | 8.0 | 0.00 | 0.10 | 0.10 | 96 | 1007.5 |
| 20260509140029 | 11 | 183 | 3.2 | 6.4 | 0.00 | 0.10 | 0.10 | 96 | 1007.7 |
| 20260509135525 | 11 | 216 | 3.2 | 6.4 | 0.00 | 0.10 | 0.10 | 97 | 1007.7 |
| 20260509135023 | 11 | 158 | 0.0 | 3.2 | 0.00 | 0.10 | 0.10 | 97 | 1007.7 |
| 20260509134520 | 11 | 185 | 0.0 | 4.8 | 0.00 | 0.10 | 0.10 | 97 | 1007.7 |
| 20260509134018 | 11 | 124 | 0.0 | 6.4 | 0.00 | 0.10 | 0.10 | 97 | 1007.6 |
| 20260509133514 | 11 | 204 | 0.0 | 9.7 | 0.00 | 0.10 | 0.10 | 97 | 1007.6 |
| 20260509133012 | 10 | 185 | 3.2 | 14.5 | 0.00 | 0.10 | 0.10 | 97 | 1007.7 |
| 20260509132510 | 10 | 198 | 4.8 | 8.0 | 0.05 | 0.10 | 0.10 | 97 | 1007.7 |
| 20260509132008 | 10 | 201 | 3.2 | 4.8 | 0.05 | 0.10 | 0.10 | 97 | 1007.6 |
| 20260509131504 | 10 | 264 | 3.2 | 4.8 | 0.00 | 0.08 | 0.08 | 97 | 1007.7 |
| 20260509131001 | 10 | 245 | 1.6 | 6.4 | 0.05 | 0.08 | 0.08 | 97 | 1007.7 |
| 20260509130456 | 10 | 183 | 6.4 | 8.0 | 0.05 | 0.08 | 0.08 | 97 | 1007.7 |
| 20260509125953 | 10 | 205 | 4.8 | 4.8 | 0.00 | 0.08 | 0.08 | 97 | 1007.7 |
| 20260509125450 | 10 | 190 | 3.2 | 3.2 | 0.00 | 0.08 | 0.08 | 97 | 1007.8 |
| 20260509124945 | 10 | 171 | 3.2 | 4.8 | 0.00 | 0.08 | 0.08 | 97 | 1007.7 |
| 20260509124443 | 10 | 174 | 1.6 | 3.2 | 0.05 | 0.08 | 0.08 | 97 | 1007.9 |
| 20260509123940 | 10 | 245 | 4.8 | 9.7 | 0.05 | 0.08 | 0.08 | 97 | 1008.0 |
| 20260509123438 | 10 | 159 | 3.2 | 4.8 | 0.00 | 0.05 | 0.05 | 97 | 1007.9 |
| 20260509122933 | 10 | 235 | 4.8 | 6.4 | 0.05 | 0.05 | 0.05 | 97 | 1007.7 |
| 20260509122430 | 10 | 206 | 3.2 | 4.8 | 0.13 | 0.05 | 0.05 | 97 | 1007.9 |
| 20260509121927 | 10 | 166 | 3.2 | 6.4 | 0.05 | 0.05 | 0.05 | 97 | 1008.0 |
| 20260509121424 | 10 | 186 | 3.2 | 6.4 | 0.05 | 0.05 | 0.05 | 97 | 1008.1 |
| 20260509120922 | 10 | 177 | 3.2 | 6.4 | 0.05 | 0.03 | 0.03 | 97 | 1008.1 |
| 20260509120420 | 10 | 158 | 3.2 | 4.8 | 0.05 | 0.03 | 0.03 | 97 | 1007.9 |
| 20260509115918 | 10 | 174 | 3.2 | 4.8 | 0.05 | 0.03 | 0.03 | 97 | 1007.9 |
| 20260509115414 | 10 | 238 | 3.2 | 6.4 | 0.05 | 0.03 | 0.03 | 97 | 1008.0 |
| 20260509114912 | 10 | 180 | 4.8 | 11.3 | 0.00 | 0.00 | 0.00 | 97 | 1007.9 |
| 20260509114411 | 10 | 208 | 9.7 | 9.7 | 0.00 | 0.00 | 0.00 | 97 | 1007.9 |
| 20260509113910 | 10 | 197 | 3.2 | 4.8 | 0.00 | 0.00 | 0.00 | 97 | 1008.0 |
| 20260509113407 | 10 | 145 | 1.6 | 6.4 | 0.00 | 0.00 | 0.00 | 97 | 1007.7 |
| 20260509112903 | 10 | 243 | 4.8 | 4.8 | 0.00 | 0.00 | 0.00 | 97 | 1007.8 |
| 20260509112400 | 10 | 147 | 1.6 | 4.8 | 0.00 | 0.00 | 0.00 | 97 | 1007.7 |
| 20260509111858 | 10 | 190 | 0.0 | 3.2 | 0.05 | 0.00 | 0.00 | 97 | 1007.6 |
| 20260509111354 | 10 | 240 | 3.2 | 6.4 | 0.05 | 0.00 | 0.00 | 97 | 1007.7 |
| 20260509110852 | 10 | 203 | 3.2 | 4.8 | 0.00 | 0.00 | 0.00 | 97 | 1007.6 |
| 20260509110348 | 10 | 183 | 1.6 | 6.4 | 0.00 | 0.00 | 0.00 | 97 | 1007.8 |
| 20260509105846 | 10 | 193 | 0.0 | 4.8 | 0.05 | 0.33 | 0.33 | 97 | 1007.5 |
| 20260509105344 | 10 | 197 | 1.6 | 4.8 | 0.13 | 0.33 | 0.33 | 97 | 1007.8 |
| 20260509104840 | 10 | 235 | 1.6 | 8.0 | 0.05 | 0.33 | 0.33 | 97 | 1007.6 |
| 20260509104337 | 10 | 154 | 1.6 | 4.8 | 0.05 | 0.33 | 0.33 | 97 | 1007.6 |